EJU67FD LFLL-LPMA
Flight info
| Callsign | EJU67FD |
|---|---|
| Flight time | N/A |
| Altitude | 37000 |
| Route | REPSI DCT LERGA DCT MINSO DCT NARAK DCT AGN/N0451F370 DCT PIPOR L866 PPN DCT MIRPO DCT DGO DCT NEA DCT ARDID DCT FTM DCT BUSEN DCT NASAS DCT ROLAR DCT RAKUN |
| Aircraft | A319/M-SDE2E3FGIJ1RWXYZ/LB1 |
Departure
| Time | N/A |
|---|---|
| Airport | Lyon Saint-Exupéry Airport (LFLL) |
Arrival
| Time | 2026-05-06 12:02 |
|---|---|
| Airport | Cristiano Ronaldo International Airport (LPMA) |
| Time | Latitude | Longitude | Altitude | Speed | Heading |
|---|---|---|---|---|---|
| 2026-05-06 10:36 | 39.20212 | -9.12517 | 37019 ft | 411 kts | 229° |
| 2026-05-06 10:37 | 39.16206 | -9.17925 | 37025 ft | 411 kts | 229° |
| 2026-05-06 10:37 | 39.12224 | -9.23286 | 37029 ft | 412 kts | 229° |
| 2026-05-06 10:38 | 39.08263 | -9.28611 | 37048 ft | 412 kts | 228° |
| 2026-05-06 10:38 | 39.04298 | -9.33925 | 37052 ft | 412 kts | 228° |
| 2026-05-06 10:39 | 39.00327 | -9.39245 | 37056 ft | 412 kts | 228° |
| 2026-05-06 10:39 | 38.96357 | -9.44557 | 37049 ft | 412 kts | 228° |
| 2026-05-06 10:40 | 38.92385 | -9.49869 | 37052 ft | 412 kts | 229° |
| 2026-05-06 10:40 | 38.88432 | -9.55135 | 37057 ft | 413 kts | 228° |
| 2026-05-06 10:41 | 38.84446 | -9.60433 | 37058 ft | 413 kts | 228° |
| 2026-05-06 10:41 | 38.80461 | -9.65733 | 37056 ft | 413 kts | 228° |
| 2026-05-06 10:42 | 38.76467 | -9.71029 | 37069 ft | 413 kts | 228° |
| 2026-05-06 10:42 | 38.72470 | -9.76317 | 37067 ft | 413 kts | 228° |
| 2026-05-06 10:43 | 38.68472 | -9.81592 | 37055 ft | 413 kts | 228° |
| 2026-05-06 10:44 | 38.62477 | -9.89501 | 37046 ft | 413 kts | 229° |
| 2026-05-06 10:44 | 38.58469 | -9.94784 | 37055 ft | 414 kts | 228° |
| 2026-05-06 10:45 | 38.54447 | -10.00063 | 37066 ft | 415 kts | 228° |
| 2026-05-06 10:45 | 38.50508 | -10.05438 | 37068 ft | 414 kts | 230° |
| 2026-05-06 10:46 | 38.46665 | -10.10917 | 37070 ft | 414 kts | 231° |
| 2026-05-06 10:46 | 38.42815 | -10.16385 | 37061 ft | 414 kts | 230° |
| 2026-05-06 10:47 | 38.38927 | -10.21808 | 37061 ft | 414 kts | 230° |
| 2026-05-06 10:47 | 38.35019 | -10.27226 | 37061 ft | 416 kts | 230° |
| 2026-05-06 10:48 | 38.31110 | -10.32660 | 37070 ft | 416 kts | 230° |
| 2026-05-06 10:48 | 38.27198 | -10.38105 | 37071 ft | 417 kts | 230° |
| 2026-05-06 10:49 | 38.23276 | -10.43538 | 37077 ft | 417 kts | 230° |
| 2026-05-06 10:49 | 38.19346 | -10.48972 | 37079 ft | 417 kts | 230° |
| 2026-05-06 10:50 | 38.15418 | -10.54404 | 37074 ft | 418 kts | 231° |
| 2026-05-06 10:50 | 38.11485 | -10.59838 | 37070 ft | 418 kts | 231° |
| 2026-05-06 10:51 | 38.07536 | -10.65269 | 37077 ft | 419 kts | 230° |
| 2026-05-06 10:51 | 38.03583 | -10.70696 | 37080 ft | 419 kts | 230° |
| 2026-05-06 10:52 | 37.99624 | -10.76122 | 37087 ft | 419 kts | 230° |
| 2026-05-06 10:52 | 37.95669 | -10.81553 | 37091 ft | 419 kts | 230° |
| 2026-05-06 10:53 | 37.91708 | -10.86968 | 37095 ft | 419 kts | 230° |
| 2026-05-06 10:53 | 37.87766 | -10.92338 | 37097 ft | 419 kts | 230° |
| 2026-05-06 10:54 | 37.83799 | -10.97740 | 37093 ft | 419 kts | 230° |
| 2026-05-06 10:54 | 37.79836 | -11.03137 | 37102 ft | 419 kts | 230° |
| 2026-05-06 10:55 | 37.75869 | -11.08532 | 37103 ft | 419 kts | 230° |
| 2026-05-06 10:55 | 37.71904 | -11.13906 | 37103 ft | 418 kts | 230° |
| 2026-05-06 10:56 | 37.67933 | -11.19285 | 37105 ft | 418 kts | 230° |
| 2026-05-06 10:56 | 37.63965 | -11.24653 | 37085 ft | 418 kts | 230° |
| 2026-05-06 10:57 | 37.59990 | -11.30008 | 37089 ft | 418 kts | 230° |
| 2026-05-06 10:57 | 37.56009 | -11.35358 | 37092 ft | 418 kts | 230° |
| 2026-05-06 10:58 | 37.52038 | -11.40704 | 37099 ft | 418 kts | 230° |
| 2026-05-06 10:58 | 37.48067 | -11.46046 | 37101 ft | 417 kts | 230° |
| 2026-05-06 10:59 | 37.44093 | -11.51372 | 37102 ft | 417 kts | 230° |
| 2026-05-06 10:59 | 37.40117 | -11.56693 | 37102 ft | 417 kts | 230° |
| 2026-05-06 11:00 | 37.36139 | -11.61999 | 37090 ft | 417 kts | 230° |
| 2026-05-06 11:00 | 37.32153 | -11.67297 | 37095 ft | 417 kts | 230° |
| 2026-05-06 11:01 | 37.28172 | -11.72593 | 37099 ft | 417 kts | 230° |
| 2026-05-06 11:01 | 37.24189 | -11.77892 | 37105 ft | 417 kts | 230° |
| 2026-05-06 11:02 | 37.20208 | -11.83187 | 37104 ft | 417 kts | 230° |
| 2026-05-06 11:02 | 37.16219 | -11.88470 | 37104 ft | 417 kts | 230° |
| 2026-05-06 11:03 | 37.12225 | -11.93747 | 37110 ft | 417 kts | 230° |
| 2026-05-06 11:03 | 37.08261 | -11.98986 | 37090 ft | 417 kts | 230° |
| 2026-05-06 11:04 | 37.04261 | -12.04255 | 37096 ft | 417 kts | 230° |
| 2026-05-06 11:04 | 37.00257 | -12.09515 | 37102 ft | 417 kts | 230° |
| 2026-05-06 11:05 | 36.96254 | -12.14771 | 37111 ft | 417 kts | 230° |
| 2026-05-06 11:05 | 36.92255 | -12.20026 | 37113 ft | 417 kts | 230° |
| 2026-05-06 11:06 | 36.88256 | -12.25269 | 37117 ft | 417 kts | 230° |
| 2026-05-06 11:06 | 36.84247 | -12.30509 | 37118 ft | 417 kts | 229° |
| 2026-05-06 11:07 | 36.80242 | -12.35741 | 37107 ft | 417 kts | 230° |
| 2026-05-06 11:07 | 36.76231 | -12.40973 | 37101 ft | 417 kts | 229° |
| 2026-05-06 11:08 | 36.72214 | -12.46193 | 37106 ft | 417 kts | 229° |
| 2026-05-06 11:08 | 36.68195 | -12.51410 | 37123 ft | 417 kts | 229° |
| 2026-05-06 11:09 | 36.64175 | -12.56626 | 37128 ft | 417 kts | 229° |
| 2026-05-06 11:09 | 36.60148 | -12.61832 | 37132 ft | 417 kts | 229° |
| 2026-05-06 11:10 | 36.56124 | -12.67032 | 37130 ft | 417 kts | 229° |
| 2026-05-06 11:10 | 36.52099 | -12.72228 | 37115 ft | 417 kts | 229° |
| 2026-05-06 11:11 | 36.48072 | -12.77412 | 37113 ft | 417 kts | 229° |
| 2026-05-06 11:11 | 36.44038 | -12.82594 | 37118 ft | 417 kts | 229° |
| 2026-05-06 11:12 | 36.40005 | -12.87774 | 37118 ft | 417 kts | 229° |
| 2026-05-06 11:12 | 36.36651 | -12.92082 | 37124 ft | 417 kts | 229° |
| 2026-05-06 11:13 | 36.32606 | -12.97250 | 37130 ft | 418 kts | 228° |
| 2026-05-06 11:13 | 36.28342 | -13.02167 | 37131 ft | 419 kts | 225° |
| 2026-05-06 11:14 | 36.23913 | -13.06880 | 37117 ft | 420 kts | 224° |
| 2026-05-06 11:14 | 36.19488 | -13.11594 | 37122 ft | 419 kts | 225° |
| 2026-05-06 11:15 | 36.15099 | -13.16349 | 37105 ft | 419 kts | 225° |
| 2026-05-06 11:15 | 36.10724 | -13.21129 | 37119 ft | 420 kts | 225° |
| 2026-05-06 11:16 | 36.06346 | -13.25906 | 37122 ft | 420 kts | 225° |
| 2026-05-06 11:16 | 36.01951 | -13.30672 | 37123 ft | 420 kts | 225° |
| 2026-05-06 11:17 | 35.97582 | -13.35393 | 37116 ft | 420 kts | 225° |
| 2026-05-06 11:17 | 35.93180 | -13.40137 | 37121 ft | 420 kts | 225° |
| 2026-05-06 11:18 | 35.88776 | -13.44879 | 37122 ft | 420 kts | 225° |
| 2026-05-06 11:18 | 35.84382 | -13.49632 | 37110 ft | 420 kts | 225° |
| 2026-05-06 11:19 | 35.79976 | -13.54377 | 37113 ft | 421 kts | 225° |
| 2026-05-06 11:19 | 35.75559 | -13.59129 | 37117 ft | 422 kts | 225° |
| 2026-05-06 11:20 | 35.71122 | -13.63878 | 37108 ft | 423 kts | 225° |
| 2026-05-06 11:20 | 35.66681 | -13.68628 | 37119 ft | 423 kts | 225° |
| 2026-05-06 11:21 | 35.62235 | -13.73381 | 37126 ft | 424 kts | 225° |
| 2026-05-06 11:21 | 35.57781 | -13.78127 | 37131 ft | 424 kts | 225° |
| 2026-05-06 11:22 | 35.53328 | -13.82876 | 37140 ft | 424 kts | 225° |
| 2026-05-06 11:22 | 35.48871 | -13.87621 | 37115 ft | 425 kts | 225° |
| 2026-05-06 11:23 | 35.44401 | -13.92376 | 37126 ft | 426 kts | 225° |
| 2026-05-06 11:23 | 35.39916 | -13.97142 | 37122 ft | 427 kts | 225° |
| 2026-05-06 11:24 | 35.35411 | -14.01904 | 37125 ft | 428 kts | 225° |
| 2026-05-06 11:24 | 35.30932 | -14.06632 | 37135 ft | 428 kts | 225° |
| 2026-05-06 11:25 | 35.26420 | -14.11403 | 37142 ft | 429 kts | 225° |
| 2026-05-06 11:25 | 35.21903 | -14.16171 | 37147 ft | 429 kts | 225° |
| 2026-05-06 11:26 | 35.17381 | -14.20934 | 37148 ft | 429 kts | 225° |
| 2026-05-06 11:26 | 35.12854 | -14.25689 | 37128 ft | 430 kts | 226° |
| 2026-05-06 11:27 | 35.08312 | -14.30458 | 37136 ft | 431 kts | 226° |
| 2026-05-06 11:27 | 35.03752 | -14.35230 | 37140 ft | 432 kts | 225° |
| 2026-05-06 11:28 | 34.99183 | -14.40006 | 37145 ft | 433 kts | 225° |
| 2026-05-06 11:28 | 34.94616 | -14.44783 | 37146 ft | 433 kts | 225° |
| 2026-05-06 11:29 | 34.90044 | -14.49558 | 37141 ft | 433 kts | 226° |
| 2026-05-06 11:29 | 34.85474 | -14.54326 | 37127 ft | 433 kts | 225° |
| 2026-05-06 11:30 | 34.80896 | -14.59087 | 37118 ft | 434 kts | 226° |
| 2026-05-06 11:30 | 34.76275 | -14.63874 | 37126 ft | 438 kts | 226° |
| 2026-05-06 11:31 | 34.71640 | -14.68680 | 37128 ft | 438 kts | 226° |
| 2026-05-06 11:31 | 34.66997 | -14.73490 | 37136 ft | 439 kts | 226° |
| 2026-05-06 11:32 | 34.62380 | -14.78266 | 37143 ft | 439 kts | 226° |
| 2026-05-06 11:32 | 34.57731 | -14.83076 | 37135 ft | 439 kts | 225° |
| 2026-05-06 11:33 | 34.53077 | -14.87881 | 37147 ft | 439 kts | 225° |
| 2026-05-06 11:33 | 34.48415 | -14.92668 | 37157 ft | 439 kts | 225° |
| 2026-05-06 11:34 | 34.43752 | -14.97450 | 37129 ft | 440 kts | 226° |
| 2026-05-06 11:34 | 34.39075 | -15.02246 | 37130 ft | 441 kts | 226° |
| 2026-05-06 11:35 | 34.34389 | -15.07045 | 37139 ft | 442 kts | 225° |
| 2026-05-06 11:35 | 34.29689 | -15.11858 | 37122 ft | 443 kts | 225° |
| 2026-05-06 11:36 | 34.24985 | -15.16666 | 37132 ft | 443 kts | 225° |
| 2026-05-06 11:36 | 34.20257 | -15.21447 | 37146 ft | 444 kts | 224° |
| 2026-05-06 11:37 | 34.15317 | -15.25963 | 36731 ft | 446 kts | 220° |
| 2026-05-06 11:37 | 34.12801 | -15.28129 | 36211 ft | 443 kts | 220° |
| 2026-05-06 11:37 | 34.10324 | -15.30244 | 35704 ft | 441 kts | 220° |
| 2026-05-06 11:37 | 34.07836 | -15.32382 | 35190 ft | 438 kts | 220° |
| 2026-05-06 11:38 | 34.05372 | -15.34523 | 34679 ft | 436 kts | 220° |
| 2026-05-06 11:38 | 34.02927 | -15.36669 | 34164 ft | 434 kts | 220° |
| 2026-05-06 11:38 | 34.00497 | -15.38815 | 33591 ft | 431 kts | 220° |
| 2026-05-06 11:38 | 33.98094 | -15.40946 | 33107 ft | 427 kts | 221° |
| 2026-05-06 11:39 | 33.95711 | -15.43059 | 32595 ft | 424 kts | 221° |
| 2026-05-06 11:39 | 33.93346 | -15.45152 | 32109 ft | 420 kts | 221° |
| 2026-05-06 11:39 | 33.90996 | -15.47224 | 31622 ft | 417 kts | 221° |
| 2026-05-06 11:39 | 33.88661 | -15.49279 | 31145 ft | 414 kts | 221° |
| 2026-05-06 11:40 | 33.86344 | -15.51313 | 30677 ft | 411 kts | 221° |
| 2026-05-06 11:40 | 33.84042 | -15.53332 | 30214 ft | 408 kts | 221° |
| 2026-05-06 11:40 | 33.81759 | -15.55337 | 29717 ft | 404 kts | 221° |
| 2026-05-06 11:40 | 33.79497 | -15.57320 | 29282 ft | 400 kts | 221° |
| 2026-05-06 11:41 | 33.77261 | -15.59277 | 28857 ft | 396 kts | 221° |
| 2026-05-06 11:41 | 33.75043 | -15.61216 | 28432 ft | 393 kts | 221° |
| 2026-05-06 11:41 | 33.72845 | -15.63141 | 27990 ft | 390 kts | 221° |
| 2026-05-06 11:41 | 33.70664 | -15.65053 | 27572 ft | 386 kts | 221° |
| 2026-05-06 11:42 | 33.68504 | -15.66946 | 27155 ft | 383 kts | 221° |
| 2026-05-06 11:42 | 33.66354 | -15.68830 | 26725 ft | 381 kts | 221° |
| 2026-05-06 11:42 | 33.64216 | -15.70696 | 26289 ft | 379 kts | 221° |
| 2026-05-06 11:42 | 33.62091 | -15.72549 | 25854 ft | 377 kts | 220° |
| 2026-05-06 11:43 | 33.59973 | -15.74393 | 25391 ft | 375 kts | 220° |
| 2026-05-06 11:43 | 33.57861 | -15.76229 | 24931 ft | 374 kts | 220° |
| 2026-05-06 11:43 | 33.55780 | -15.78088 | 24470 ft | 371 kts | 225° |
| 2026-05-06 11:44 | 33.52114 | -15.82346 | 23557 ft | 365 kts | 229° |
| 2026-05-06 11:44 | 33.50307 | -15.84469 | 23090 ft | 362 kts | 229° |
| 2026-05-06 11:44 | 33.48514 | -15.86566 | 22651 ft | 359 kts | 229° |
| 2026-05-06 11:44 | 33.46732 | -15.88644 | 22222 ft | 356 kts | 229° |
| 2026-05-06 11:45 | 33.44964 | -15.90707 | 21798 ft | 353 kts | 229° |
| 2026-05-06 11:45 | 33.43211 | -15.92752 | 21367 ft | 351 kts | 228° |
| 2026-05-06 11:45 | 33.41475 | -15.94784 | 20968 ft | 348 kts | 228° |
| 2026-05-06 11:45 | 33.39753 | -15.96801 | 20552 ft | 346 kts | 228° |
| 2026-05-06 11:46 | 33.38039 | -15.98804 | 20143 ft | 344 kts | 228° |
| 2026-05-06 11:46 | 33.36332 | -16.00796 | 19734 ft | 342 kts | 228° |
| 2026-05-06 11:46 | 33.34634 | -16.02776 | 19338 ft | 340 kts | 228° |
| 2026-05-06 11:46 | 33.32945 | -16.04747 | 18936 ft | 339 kts | 228° |
| 2026-05-06 11:47 | 33.31263 | -16.06710 | 18538 ft | 338 kts | 228° |
| 2026-05-06 11:47 | 33.29583 | -16.08666 | 18106 ft | 336 kts | 227° |
| 2026-05-06 11:47 | 33.27936 | -16.10580 | 17714 ft | 334 kts | 227° |
| 2026-05-06 11:47 | 33.26279 | -16.12505 | 17327 ft | 331 kts | 227° |
| 2026-05-06 11:48 | 33.24613 | -16.14439 | 16943 ft | 328 kts | 227° |
| 2026-05-06 11:48 | 33.23006 | -16.16311 | 16576 ft | 326 kts | 227° |
| 2026-05-06 11:48 | 33.21384 | -16.18198 | 16209 ft | 324 kts | 227° |
| 2026-05-06 11:48 | 33.19771 | -16.20070 | 15844 ft | 323 kts | 227° |
| 2026-05-06 11:49 | 33.18164 | -16.21936 | 15481 ft | 321 kts | 227° |
| 2026-05-06 11:49 | 33.16567 | -16.23791 | 15123 ft | 320 kts | 227° |
| 2026-05-06 11:49 | 33.14976 | -16.25638 | 14765 ft | 319 kts | 227° |
| 2026-05-06 11:49 | 33.13389 | -16.27478 | 14403 ft | 318 kts | 227° |
| 2026-05-06 11:50 | 33.11805 | -16.29309 | 14050 ft | 316 kts | 227° |
| 2026-05-06 11:50 | 33.10229 | -16.31131 | 13661 ft | 314 kts | 227° |
| 2026-05-06 11:50 | 33.08665 | -16.32937 | 13297 ft | 312 kts | 227° |
| 2026-05-06 11:50 | 33.07111 | -16.34732 | 12936 ft | 310 kts | 227° |
| 2026-05-06 11:51 | 33.05570 | -16.36514 | 12579 ft | 307 kts | 227° |
| 2026-05-06 11:51 | 33.04040 | -16.38284 | 12211 ft | 306 kts | 227° |
| 2026-05-06 11:51 | 33.02516 | -16.40045 | 11853 ft | 304 kts | 227° |
| 2026-05-06 11:51 | 33.00998 | -16.41798 | 11488 ft | 303 kts | 227° |
| 2026-05-06 11:52 | 32.99486 | -16.43541 | 11120 ft | 302 kts | 227° |
| 2026-05-06 11:52 | 32.97979 | -16.45277 | 10750 ft | 301 kts | 227° |
| 2026-05-06 11:52 | 32.96477 | -16.47005 | 10377 ft | 300 kts | 227° |
| 2026-05-06 11:52 | 32.94977 | -16.48728 | 9990 ft | 299 kts | 227° |
| 2026-05-06 11:53 | 32.93483 | -16.50444 | 9593 ft | 298 kts | 227° |
| 2026-05-06 11:53 | 32.91990 | -16.52138 | 9245 ft | 295 kts | 226° |
| 2026-05-06 11:53 | 32.90477 | -16.53783 | 8827 ft | 294 kts | 225° |
| 2026-05-06 11:53 | 32.88965 | -16.55390 | 8501 ft | 289 kts | 225° |
| 2026-05-06 11:54 | 32.87493 | -16.56939 | 8372 ft | 277 kts | 225° |
| 2026-05-06 11:54 | 32.86075 | -16.58430 | 8213 ft | 268 kts | 224° |
| 2026-05-06 11:54 | 32.84697 | -16.59887 | 7963 ft | 263 kts | 225° |
| 2026-05-06 11:54 | 32.83331 | -16.61339 | 7553 ft | 264 kts | 226° |
| 2026-05-06 11:55 | 32.81923 | -16.62691 | 7219 ft | 264 kts | 216° |
| 2026-05-06 11:55 | 32.80275 | -16.63679 | 6809 ft | 266 kts | 202° |
| 2026-05-06 11:55 | 32.78522 | -16.64380 | 6399 ft | 265 kts | 201° |
| 2026-05-06 11:55 | 32.76783 | -16.65076 | 5930 ft | 263 kts | 201° |
| 2026-05-06 11:56 | 32.75046 | -16.65778 | 5392 ft | 263 kts | 201° |
| 2026-05-06 11:56 | 32.73302 | -16.66487 | 4758 ft | 268 kts | 200° |
| 2026-05-06 11:56 | 32.71530 | -16.67209 | 4208 ft | 269 kts | 200° |
| 2026-05-06 11:56 | 32.69768 | -16.67926 | 3830 ft | 263 kts | 199° |
| 2026-05-06 11:57 | 32.68100 | -16.68601 | 3760 ft | 244 kts | 199° |
| 2026-05-06 11:57 | 32.66544 | -16.69233 | 3690 ft | 231 kts | 199° |
| 2026-05-06 11:57 | 32.65056 | -16.69837 | 3605 ft | 221 kts | 199° |
| 2026-05-06 11:57 | 32.63632 | -16.70457 | 3448 ft | 217 kts | 206° |
| 2026-05-06 11:58 | 32.62364 | -16.71491 | 2854 ft | 227 kts | 226° |
| 2026-05-06 11:58 | 32.61432 | -16.72996 | 2491 ft | 222 kts | 246° |
| 2026-05-06 11:58 | 32.60941 | -16.74669 | 2330 ft | 210 kts | 263° |
| 2026-05-06 11:58 | 32.60875 | -16.76343 | 2192 ft | 196 kts | 279° |
| 2026-05-06 11:59 | 32.61165 | -16.77861 | 2092 ft | 183 kts | 293° |
| 2026-05-06 11:59 | 32.61815 | -16.79092 | 1879 ft | 175 kts | 316° |
| 2026-05-06 11:59 | 32.62772 | -16.79939 | 1555 ft | 169 kts | 337° |
| 2026-05-06 11:59 | 32.63862 | -16.80324 | 1307 ft | 159 kts | 356° |
| 2026-05-06 12:00 | 32.64923 | -16.80346 | 1085 ft | 147 kts | 3° |
| 2026-05-06 12:00 | 32.65909 | -16.80347 | 896 ft | 133 kts | 0° |
| 2026-05-06 12:00 | 32.66792 | -16.80224 | 729 ft | 125 kts | 12° |
| 2026-05-06 12:00 | 32.67604 | -16.79856 | 540 ft | 125 kts | 30° |
| 2026-05-06 12:01 | 32.68272 | -16.79217 | 389 ft | 123 kts | 38° |
| 2026-05-06 12:01 | 32.68875 | -16.78511 | 237 ft | 119 kts | 39° |
| 2026-05-06 12:01 | 32.69456 | -16.77839 | 175 ft | 105 kts | 46° |
| 2026-05-06 12:01 | 32.69875 | -16.77344 | 193 ft | 61 kts | 45° |
| 2026-05-06 12:02 | 32.69955 | -16.77193 | 194 ft | 9 kts | 147° |
| 2026-05-06 12:02 | 32.69887 | -16.77177 | 186 ft | 12 kts | 183° |
| 2026-05-06 12:02 | 32.69826 | -16.77194 | 183 ft | 15 kts | 214° |
| 2026-05-06 12:02 | 32.69742 | -16.77298 | 174 ft | 21 kts | 226° |
| 2026-05-06 12:03 | 32.69632 | -16.77434 | 169 ft | 24 kts | 226° |
| 2026-05-06 12:03 | 32.69559 | -16.77523 | 169 ft | 8 kts | 225° |
| 2026-05-06 12:03 | 32.69518 | -16.77507 | 169 ft | 7 kts | 139° |
| 2026-05-06 12:03 | 32.69490 | -16.77477 | 169 ft | 2 kts | 137° |
| 2026-05-06 12:04 | 32.69483 | -16.77470 | 169 ft | 0 kts | 137° |